createdAt,value
2024-03-29T00:02:08.076Z,64.51
2024-03-29T00:04:46.002Z,64.18
2024-03-29T00:07:23.610Z,64.56
2024-03-29T00:10:02.192Z,64.27
2024-03-29T00:12:40.060Z,64.72
2024-03-29T00:15:17.576Z,64.98
2024-03-29T00:17:55.848Z,65.36
2024-03-29T00:20:25.460Z,65.50
2024-03-29T00:23:01.606Z,65.20
2024-03-29T00:25:39.422Z,65.44
2024-03-29T00:28:17.403Z,65.88
2024-03-29T00:30:54.870Z,65.89
2024-03-29T00:33:33.143Z,65.64
2024-03-29T00:36:13.113Z,66.23
2024-03-29T00:38:51.196Z,67.01
2024-03-29T00:41:28.993Z,66.47
2024-03-29T00:44:07.434Z,66.90
2024-03-29T00:46:45.735Z,67.66
2024-03-29T00:49:23.857Z,67.61
2024-03-29T00:52:01.403Z,68.22
2024-03-29T00:54:39.716Z,67.33
2024-03-29T00:57:18.108Z,67.33
2024-03-29T00:59:57.879Z,67.68
2024-03-29T01:02:35.632Z,69.00
2024-03-29T01:05:06.978Z,68.33
2024-03-29T01:07:43.228Z,68.70
2024-03-29T01:10:23.182Z,69.17
2024-03-29T01:13:00.389Z,69.36
2024-03-29T01:15:37.993Z,69.24
2024-03-29T01:18:15.544Z,69.89
2024-03-29T01:20:53.786Z,70.20
2024-03-29T01:23:31.247Z,70.85
2024-03-29T01:26:13.722Z,71.10
2024-03-29T01:28:51.341Z,71.62
2024-03-29T01:31:29.662Z,72.05
2024-03-29T01:34:07.780Z,72.37
2024-03-29T01:36:45.820Z,73.07
2024-03-29T01:39:34.249Z,72.89
2024-03-29T01:42:13.120Z,73.39
2024-03-29T01:44:51.253Z,73.47
2024-03-29T01:47:29.853Z,73.35
2024-03-29T01:50:08.382Z,73.56
2024-03-29T01:52:46.723Z,73.62
2024-03-29T01:55:24.471Z,74.17
2024-03-29T01:58:02.925Z,74.51
2024-03-29T02:00:51.455Z,74.38
2024-03-29T02:03:29.538Z,74.40
2024-03-29T02:06:07.966Z,73.94
2024-03-29T02:08:45.751Z,73.87
2024-03-29T02:11:23.694Z,72.84
2024-03-29T02:13:58.338Z,71.77
2024-03-29T02:16:28.393Z,71.92
2024-03-29T02:19:05.680Z,71.68
2024-03-29T02:21:49.299Z,71.54
2024-03-29T02:24:25.378Z,71.47
2024-03-29T02:27:05.889Z,71.74
2024-03-29T02:29:43.658Z,71.50
2024-03-29T02:32:22.001Z,71.36
2024-03-29T02:35:02.367Z,71.29
2024-03-29T02:37:42.522Z,70.94
2024-03-29T02:40:21.319Z,70.83
2024-03-29T02:42:59.254Z,70.43
2024-03-29T02:45:37.670Z,70.14
2024-03-29T02:48:16.087Z,70.02
2024-03-29T02:50:53.911Z,69.97
2024-03-29T02:53:31.913Z,69.76
2024-03-29T02:56:11.114Z,69.32
2024-03-29T02:58:48.939Z,69.14
2024-03-29T03:01:26.630Z,69.12
2024-03-29T03:04:05.626Z,68.51
2024-03-29T03:06:44.172Z,68.70
2024-03-29T03:09:40.934Z,68.08
2024-03-29T03:12:18.994Z,67.92
2024-03-29T03:14:56.567Z,68.04
2024-03-29T03:17:34.321Z,68.06
2024-03-29T03:20:14.809Z,67.80
2024-03-29T03:22:55.394Z,67.80
2024-03-29T03:25:32.968Z,67.34
2024-03-29T03:28:13.008Z,66.65
2024-03-29T03:30:50.640Z,67.53
2024-03-29T03:33:28.441Z,67.07
2024-03-29T03:36:06.388Z,66.78
2024-03-29T03:38:44.723Z,66.80
2024-03-29T03:41:22.493Z,66.79
2024-03-29T03:43:51.988Z,67.12
2024-03-29T03:46:27.986Z,66.84
2024-03-29T03:49:05.542Z,67.19
2024-03-29T03:51:43.531Z,66.85
2024-03-29T03:54:21.115Z,66.64
2024-03-29T03:56:58.607Z,67.00
2024-03-29T03:59:35.982Z,66.52
2024-03-29T04:02:14.190Z,66.66
2024-03-29T04:04:54.715Z,66.90
2024-03-29T04:07:31.762Z,67.30
2024-03-29T04:10:10.924Z,67.21
2024-03-29T04:12:48.906Z,66.91
2024-03-29T04:15:26.453Z,67.04
2024-03-29T04:18:05.084Z,66.90
2024-03-29T04:20:42.802Z,66.72
2024-03-29T04:23:12.528Z,66.79
2024-03-29T04:25:54.894Z,66.40
2024-03-29T04:28:29.074Z,66.83
2024-03-29T04:31:07.420Z,66.79
2024-03-29T04:33:44.624Z,66.87
2024-03-29T04:36:21.753Z,66.63
2024-03-29T04:38:58.649Z,66.71
2024-03-29T04:41:38.154Z,66.63
2024-03-29T04:44:25.588Z,66.72
2024-03-29T04:47:02.876Z,66.84
2024-03-29T04:49:40.492Z,67.25
2024-03-29T04:52:18.409Z,67.08
2024-03-29T04:54:56.080Z,66.81
2024-03-29T04:57:33.084Z,66.98
2024-03-29T05:00:11.938Z,67.34
2024-03-29T05:02:49.229Z,67.03
2024-03-29T05:05:26.199Z,67.16
2024-03-29T05:08:07.308Z,67.66
2024-03-29T05:10:47.875Z,67.65
2024-03-29T05:13:25.802Z,67.61
2024-03-29T05:16:03.603Z,67.33
2024-03-29T05:18:33.445Z,67.29
2024-03-29T05:21:10.623Z,67.07
2024-03-29T05:23:48.786Z,67.22
2024-03-29T05:26:25.761Z,67.15
2024-03-29T05:29:05.317Z,66.82
2024-03-29T05:31:44.350Z,67.12
2024-03-29T05:34:21.435Z,66.45
2024-03-29T05:36:59.035Z,66.45
2024-03-29T05:39:36.038Z,66.00
2024-03-29T05:42:13.677Z,65.83
2024-03-29T05:44:51.070Z,65.64
2024-03-29T05:47:28.451Z,65.11
2024-03-29T05:49:58.030Z,64.87
2024-03-29T05:52:31.558Z,64.58
2024-03-29T05:55:10.869Z,64.33
2024-03-29T05:57:49.558Z,64.08
2024-03-29T06:00:26.313Z,63.15
2024-03-29T06:03:06.025Z,62.38
2024-03-29T06:05:44.539Z,61.85
2024-03-29T06:08:22.523Z,60.86
2024-03-29T06:11:00.370Z,59.25
2024-03-29T06:13:53.936Z,56.97
2024-03-29T06:17:23.182Z,55.05
2024-03-29T06:20:03.209Z,51.72
2024-03-29T06:22:32.733Z,50.88
2024-03-29T06:25:10.580Z,49.04
2024-03-29T06:27:49.341Z,46.44
2024-03-29T06:30:25.906Z,46.72
2024-03-29T06:33:04.390Z,45.97
2024-03-29T06:35:40.875Z,46.31
2024-03-29T06:38:17.685Z,44.82
2024-03-29T06:40:55.113Z,43.95
2024-03-29T06:43:31.775Z,43.96
2024-03-29T06:46:09.121Z,44.01
2024-03-29T06:48:45.649Z,43.98
2024-03-29T06:51:15.429Z,42.80
2024-03-29T06:53:52.925Z,42.76
2024-03-29T06:56:31.124Z,42.85
2024-03-29T06:59:09.325Z,42.53
2024-03-29T07:01:48.763Z,42.06
2024-03-29T07:04:29.295Z,41.58
2024-03-29T07:07:05.933Z,41.50
2024-03-29T07:09:42.611Z,41.24
2024-03-29T07:12:19.715Z,41.39
2024-03-29T07:14:56.416Z,41.95
2024-03-29T07:17:33.742Z,41.13
2024-03-29T07:20:12.988Z,41.32
2024-03-29T07:22:50.177Z,40.98
2024-03-29T07:25:19.541Z,40.60
2024-03-29T07:27:54.308Z,40.47
2024-03-29T07:30:31.105Z,39.88
2024-03-29T07:33:10.845Z,40.11
2024-03-29T07:35:47.952Z,40.14
2024-03-29T07:38:26.322Z,39.67
2024-03-29T07:41:03.754Z,38.86
2024-03-29T07:44:09.521Z,39.11
2024-03-29T07:46:43.276Z,37.92
2024-03-29T07:49:26.593Z,37.23
2024-03-29T07:51:56.778Z,37.09
2024-03-29T07:54:34.116Z,36.49
2024-03-29T07:57:15.864Z,36.33
2024-03-29T07:59:55.132Z,35.78
2024-03-29T08:02:32.200Z,35.35
2024-03-29T08:05:09.929Z,35.33
2024-03-29T08:07:47.109Z,34.87
2024-03-29T08:10:23.912Z,35.30
2024-03-29T08:13:02.183Z,34.97
2024-03-29T08:15:39.641Z,34.38
2024-03-29T08:18:17.556Z,34.55
2024-03-29T08:20:56.359Z,34.14
2024-03-29T08:23:33.541Z,34.06
2024-03-29T08:26:11.585Z,33.91
2024-03-29T08:28:41.657Z,32.80
2024-03-29T08:31:16.741Z,33.24
2024-03-29T08:34:01.494Z,32.71
2024-03-29T08:36:36.844Z,32.18
2024-03-29T08:39:14.415Z,32.33
2024-03-29T08:41:52.275Z,32.25
2024-03-29T08:44:30.254Z,31.87
2024-03-29T08:47:08.386Z,31.82
2024-03-29T08:49:44.942Z,31.54
2024-03-29T08:52:23.575Z,31.31
2024-03-29T08:55:00.428Z,31.79
2024-03-29T08:57:37.909Z,32.10
2024-03-29T09:00:15.757Z,31.78
2024-03-29T09:02:53.223Z,32.11
2024-03-29T09:05:31.155Z,31.62
2024-03-29T09:08:00.681Z,31.56
2024-03-29T09:10:37.372Z,31.21
2024-03-29T09:13:14.702Z,31.72
2024-03-29T09:15:51.796Z,31.06
2024-03-29T09:18:29.660Z,31.09
2024-03-29T09:21:12.411Z,30.30
2024-03-29T09:23:54.219Z,30.41
2024-03-29T09:26:31.135Z,30.42
2024-03-29T09:29:09.302Z,30.86
2024-03-29T09:31:46.075Z,30.30
2024-03-29T09:34:24.591Z,31.19
2024-03-29T09:37:01.536Z,31.50
2024-03-29T09:39:39.488Z,31.80
2024-03-29T09:42:20.939Z,31.53
2024-03-29T09:44:59.718Z,31.23
2024-03-29T09:47:38.028Z,31.71
2024-03-29T09:50:15.998Z,31.55
2024-03-29T09:52:54.570Z,30.77
2024-03-29T09:55:32.511Z,30.51
2024-03-29T09:58:02.387Z,30.57
2024-03-29T10:00:38.796Z,30.78
2024-03-29T10:03:20.412Z,30.82
2024-03-29T10:05:58.435Z,31.40
2024-03-29T10:08:35.892Z,32.49
2024-03-29T10:11:13.260Z,32.43
2024-03-29T10:13:50.654Z,32.38
2024-03-29T10:16:27.708Z,31.73
2024-03-29T10:19:08.998Z,32.22
2024-03-29T10:21:45.627Z,32.71
2024-03-29T10:24:22.676Z,33.62
2024-03-29T10:26:59.411Z,33.21
2024-03-29T10:29:36.201Z,33.41
2024-03-29T10:32:06.292Z,33.20
2024-03-29T10:34:40.122Z,33.31
2024-03-29T10:37:28.466Z,33.19
2024-03-29T10:40:04.990Z,33.22
2024-03-29T10:42:42.081Z,32.93
2024-03-29T10:45:19.242Z,32.83
2024-03-29T10:47:55.890Z,33.00
2024-03-29T10:50:33.649Z,33.53
2024-03-29T10:53:12.488Z,33.59
2024-03-29T10:55:49.314Z,33.29
2024-03-29T10:58:32.970Z,32.59
2024-03-29T11:01:11.084Z,32.93
2024-03-29T11:04:04.344Z,33.00
2024-03-29T11:06:42.176Z,33.14
2024-03-29T11:09:21.420Z,33.22
2024-03-29T11:12:00.230Z,33.06
2024-03-29T11:15:00.300Z,32.48
2024-03-29T11:17:36.761Z,31.92
2024-03-29T11:20:17.547Z,32.15
2024-03-29T11:22:55.785Z,32.10
2024-03-29T11:25:47.086Z,32.45
2024-03-29T11:28:39.030Z,32.99
2024-03-29T11:31:15.701Z,33.12
2024-03-29T11:33:55.259Z,33.40
2024-03-29T11:36:37.521Z,33.02
2024-03-29T11:39:22.970Z,33.06
2024-03-29T11:42:02.697Z,33.25
2024-03-29T11:44:39.756Z,32.36
2024-03-29T11:47:19.735Z,32.50
2024-03-29T11:50:02.547Z,32.78
2024-03-29T11:52:39.835Z,32.65
2024-03-29T11:55:17.217Z,32.01
2024-03-29T11:57:54.398Z,32.08
2024-03-29T12:00:31.784Z,32.05
2024-03-29T12:03:09.867Z,32.46
2024-03-29T12:05:47.836Z,32.08
2024-03-29T12:08:25.507Z,32.29
2024-03-29T12:11:06.504Z,32.01
2024-03-29T12:13:43.610Z,31.68
2024-03-29T12:16:21.202Z,32.35
2024-03-29T12:18:58.617Z,31.72
2024-03-29T12:21:28.125Z,31.58
2024-03-29T12:24:03.725Z,31.54
2024-03-29T12:26:41.468Z,31.67
2024-03-29T12:29:19.337Z,32.24
2024-03-29T12:32:05.765Z,32.13
2024-03-29T12:34:42.825Z,32.06
2024-03-29T12:37:21.047Z,31.34
2024-03-29T12:39:59.001Z,31.96
2024-03-29T12:42:36.267Z,31.94
2024-03-29T12:45:13.778Z,31.52
2024-03-29T12:47:53.791Z,31.44
2024-03-29T12:50:37.292Z,32.11
2024-03-29T12:53:18.804Z,31.60
2024-03-29T12:55:55.822Z,32.07
2024-03-29T12:58:32.286Z,32.57
2024-03-29T13:01:11.185Z,32.44
2024-03-29T13:03:47.895Z,31.93
2024-03-29T13:06:24.372Z,31.48
2024-03-29T13:09:00.981Z,31.95
2024-03-29T13:11:31.798Z,31.73
2024-03-29T13:14:06.522Z,30.81
2024-03-29T13:16:44.016Z,30.61
2024-03-29T13:19:21.044Z,30.71
2024-03-29T13:22:00.210Z,30.54
2024-03-29T13:24:38.000Z,30.65
2024-03-29T13:27:15.259Z,31.25
2024-03-29T13:29:54.060Z,31.33
2024-03-29T13:32:33.814Z,31.16
2024-03-29T13:35:13.473Z,31.33
2024-03-29T13:37:50.813Z,31.58
2024-03-29T13:40:28.299Z,30.90
2024-03-29T13:43:06.005Z,29.93
2024-03-29T13:45:42.874Z,29.67
2024-03-29T13:48:20.021Z,29.54
2024-03-29T13:50:51.622Z,29.15
2024-03-29T13:53:26.043Z,29.05
2024-03-29T13:56:04.615Z,28.98
2024-03-29T13:58:41.195Z,29.03
2024-03-29T14:01:17.958Z,29.06
2024-03-29T14:03:55.532Z,28.29
2024-03-29T14:06:32.064Z,28.44
2024-03-29T14:09:09.716Z,28.29
2024-03-29T14:11:48.090Z,28.61
2024-03-29T14:14:24.039Z,28.97
2024-03-29T14:17:05.495Z,29.22
2024-03-29T14:19:42.935Z,28.63
2024-03-29T14:22:24.499Z,28.64
2024-03-29T14:25:01.663Z,28.88
2024-03-29T14:27:32.319Z,28.62
2024-03-29T14:30:07.150Z,29.15
2024-03-29T14:32:57.809Z,29.37
2024-03-29T14:35:43.113Z,28.14
2024-03-29T14:38:21.804Z,28.48
2024-03-29T14:40:59.415Z,28.44
2024-03-29T14:43:29.307Z,28.73
2024-03-29T14:46:06.232Z,28.98
2024-03-29T14:48:44.765Z,28.92
2024-03-29T14:51:22.798Z,29.22
2024-03-29T14:53:59.340Z,29.73
2024-03-29T14:56:36.246Z,29.79
2024-03-29T14:59:13.884Z,29.35
2024-03-29T15:01:51.731Z,29.38
2024-03-29T15:04:28.998Z,29.17
2024-03-29T15:07:07.561Z,29.48
2024-03-29T15:09:44.811Z,29.32
2024-03-29T15:12:22.002Z,29.65
2024-03-29T15:14:51.832Z,29.63
2024-03-29T15:17:28.331Z,29.70
2024-03-29T15:20:06.696Z,29.88
2024-03-29T15:22:46.940Z,30.01
2024-03-29T15:25:23.722Z,29.99
2024-03-29T15:28:11.716Z,30.14
2024-03-29T15:30:58.850Z,30.41
2024-03-29T15:33:29.163Z,30.28
2024-03-29T15:36:06.502Z,30.35
2024-03-29T15:38:44.642Z,30.56
2024-03-29T15:41:21.971Z,30.47
2024-03-29T15:43:59.933Z,30.33
2024-03-29T15:46:38.089Z,30.53
2024-03-29T15:49:15.110Z,31.05
2024-03-29T15:51:51.658Z,30.88
2024-03-29T15:54:28.756Z,30.77
2024-03-29T15:57:05.916Z,30.98
2024-03-29T15:59:45.592Z,31.16
2024-03-29T16:02:23.094Z,31.26
2024-03-29T16:04:54.697Z,30.94
2024-03-29T16:07:29.926Z,31.35
2024-03-29T16:10:07.691Z,31.51
2024-03-29T16:12:45.255Z,31.62
2024-03-29T16:15:22.653Z,31.87
2024-03-29T16:17:59.726Z,31.38
2024-03-29T16:20:37.013Z,31.50
2024-03-29T16:23:15.999Z,31.78
2024-03-29T16:25:59.303Z,32.04
2024-03-29T16:28:36.612Z,32.37
2024-03-29T16:31:14.187Z,32.59
2024-03-29T16:33:51.327Z,32.65
2024-03-29T16:36:28.318Z,32.75
2024-03-29T16:39:05.694Z,33.05
2024-03-29T16:41:47.481Z,32.92
2024-03-29T16:44:26.292Z,32.77
2024-03-29T16:47:04.177Z,32.64
2024-03-29T16:49:33.952Z,32.73
2024-03-29T16:52:11.288Z,33.05
2024-03-29T16:54:48.492Z,33.49
2024-03-29T16:57:25.910Z,33.35
2024-03-29T17:00:04.318Z,33.38
2024-03-29T17:02:41.432Z,33.62
2024-03-29T17:05:18.964Z,33.93
2024-03-29T17:07:56.404Z,34.03
2024-03-29T17:10:34.365Z,34.19
2024-03-29T17:13:12.811Z,34.60
2024-03-29T17:15:54.076Z,34.48
2024-03-29T17:18:31.109Z,34.53
2024-03-29T17:21:10.401Z,34.62
2024-03-29T17:23:48.668Z,34.98
2024-03-29T17:26:27.384Z,34.78
2024-03-29T17:29:06.485Z,35.33
2024-03-29T17:31:57.328Z,36.06
2024-03-29T17:34:43.051Z,35.89
2024-03-29T17:37:20.531Z,35.79
2024-03-29T17:39:57.416Z,36.33
2024-03-29T17:42:34.557Z,36.31
2024-03-29T17:45:13.104Z,36.11
2024-03-29T17:47:50.952Z,36.03
2024-03-29T17:50:29.778Z,36.24
2024-03-29T17:53:09.392Z,36.13
2024-03-29T17:55:40.389Z,36.80
2024-03-29T17:58:14.067Z,36.73
2024-03-29T18:00:53.580Z,37.54
2024-03-29T18:03:32.199Z,36.98
2024-03-29T18:06:11.304Z,37.64
2024-03-29T18:08:49.952Z,37.04
2024-03-29T18:11:28.892Z,37.28
2024-03-29T18:14:09.446Z,37.56
2024-03-29T18:16:46.144Z,37.36
2024-03-29T18:19:23.812Z,37.75
2024-03-29T18:22:02.637Z,37.90
2024-03-29T18:24:40.247Z,38.32
2024-03-29T18:27:16.580Z,38.44
2024-03-29T18:29:54.628Z,38.62
2024-03-29T18:32:32.814Z,38.51
2024-03-29T18:35:13.457Z,39.32
2024-03-29T18:37:51.759Z,39.19
2024-03-29T18:40:29.402Z,39.76
2024-03-29T18:43:08.965Z,39.47
2024-03-29T18:45:48.708Z,39.69
2024-03-29T18:48:19.072Z,40.08
2024-03-29T18:50:56.920Z,40.23
2024-03-29T18:53:37.263Z,40.58
2024-03-29T18:56:13.707Z,39.99
2024-03-29T18:58:52.579Z,40.30
2024-03-29T19:01:33.943Z,40.60
2024-03-29T19:04:12.758Z,40.61
2024-03-29T19:06:52.592Z,40.99
2024-03-29T19:09:30.712Z,40.92
2024-03-29T19:12:09.293Z,41.23
2024-03-29T19:14:47.844Z,41.41
2024-03-29T19:17:25.799Z,41.48
2024-03-29T19:20:04.476Z,41.56
2024-03-29T19:22:42.540Z,41.80
2024-03-29T19:25:21.928Z,42.07
2024-03-29T19:28:00.672Z,42.09
2024-03-29T19:30:38.642Z,42.20
2024-03-29T19:33:17.102Z,42.26
2024-03-29T19:35:55.106Z,42.60
2024-03-29T19:38:33.073Z,43.02
2024-03-29T19:41:12.851Z,43.00
2024-03-29T19:43:50.982Z,43.11
2024-03-29T19:46:20.963Z,42.91
2024-03-29T19:48:57.114Z,43.24
2024-03-29T19:51:35.894Z,43.31
2024-03-29T19:54:14.254Z,43.27
2024-03-29T19:56:52.608Z,43.63
2024-03-29T19:59:31.232Z,43.38
2024-03-29T20:02:10.571Z,43.79
2024-03-29T20:04:49.107Z,43.81
2024-03-29T20:07:27.674Z,43.82
2024-03-29T20:10:05.292Z,44.34
2024-03-29T20:12:43.089Z,43.84
2024-03-29T20:15:20.887Z,44.19
2024-03-29T20:17:59.343Z,44.47
2024-03-29T20:20:37.016Z,44.39
2024-03-29T20:23:15.711Z,44.65
2024-03-29T20:25:53.586Z,44.79
2024-03-29T20:28:31.490Z,45.24
2024-03-29T20:31:06.849Z,45.40
2024-03-29T20:33:38.358Z,45.66
2024-03-29T20:36:15.883Z,45.42
2024-03-29T20:38:57.672Z,45.74
2024-03-29T20:41:35.543Z,46.00
2024-03-29T20:44:14.227Z,46.29
2024-03-29T20:46:51.929Z,46.45
2024-03-29T20:49:29.349Z,46.49
2024-03-29T20:52:08.244Z,46.58
2024-03-29T20:54:46.163Z,47.26
2024-03-29T20:57:24.564Z,47.23
2024-03-29T21:00:02.853Z,47.41
2024-03-29T21:02:58.750Z,47.53
2024-03-29T21:05:41.397Z,47.91
2024-03-29T21:08:19.235Z,48.08
2024-03-29T21:10:57.210Z,48.14
2024-03-29T21:13:35.169Z,48.54
2024-03-29T21:16:13.911Z,48.35
2024-03-29T21:18:51.549Z,49.21
2024-03-29T21:21:31.877Z,48.84
2024-03-29T21:24:10.295Z,48.96
2024-03-29T21:26:47.626Z,49.13
2024-03-29T21:29:25.246Z,49.31
2024-03-29T21:32:02.761Z,49.63
2024-03-29T21:34:40.390Z,49.40
2024-03-29T21:37:18.504Z,49.88
2024-03-29T21:39:56.350Z,50.21
2024-03-29T21:42:33.841Z,50.57
2024-03-29T21:45:04.164Z,50.83
2024-03-29T21:47:40.204Z,50.92
2024-03-29T21:50:18.700Z,51.43
2024-03-29T21:52:58.723Z,51.53
2024-03-29T21:55:36.925Z,51.69
2024-03-29T21:58:14.562Z,52.00
2024-03-29T22:00:52.536Z,51.77
2024-03-29T22:03:30.125Z,51.74
2024-03-29T22:06:07.982Z,51.98
2024-03-29T22:08:45.731Z,52.35
2024-03-29T22:11:23.198Z,51.91
2024-03-29T22:14:01.213Z,52.57
2024-03-29T22:16:38.620Z,52.67
2024-03-29T22:19:08.980Z,53.09
2024-03-29T22:21:41.464Z,53.05
2024-03-29T22:24:18.975Z,52.72
2024-03-29T22:26:56.668Z,53.15
2024-03-29T22:29:34.938Z,53.39
2024-03-29T22:32:10.034Z,53.38
2024-03-29T22:34:47.905Z,53.82
2024-03-29T22:37:25.346Z,54.05
2024-03-29T22:40:03.571Z,54.33
2024-03-29T22:42:41.023Z,54.39
2024-03-29T22:45:18.794Z,54.35
2024-03-29T22:47:57.616Z,54.65
2024-03-29T22:50:35.256Z,54.96
2024-03-29T22:53:08.295Z,54.82
2024-03-29T22:55:42.703Z,55.86
2024-03-29T22:58:20.821Z,55.50
2024-03-29T23:00:59.360Z,55.98
2024-03-29T23:03:37.762Z,55.59
2024-03-29T23:06:16.647Z,55.62
2024-03-29T23:08:54.434Z,56.35
2024-03-29T23:11:31.962Z,56.22
2024-03-29T23:14:11.016Z,56.00
2024-03-29T23:16:49.166Z,56.30
2024-03-29T23:19:26.721Z,56.00
2024-03-29T23:22:04.912Z,56.01
2024-03-29T23:24:42.271Z,56.04
2024-03-29T23:27:20.099Z,55.86
2024-03-29T23:29:59.428Z,55.92
2024-03-29T23:32:37.680Z,56.46
2024-03-29T23:35:16.624Z,56.47
2024-03-29T23:37:54.937Z,56.80
2024-03-29T23:40:32.622Z,56.76
2024-03-29T23:43:11.396Z,57.12
2024-03-29T23:45:48.824Z,57.66
2024-03-29T23:48:26.414Z,57.60
2024-03-29T23:51:04.694Z,58.08
2024-03-29T23:53:42.446Z,58.00
2024-03-29T23:56:21.242Z,58.18
2024-03-29T23:59:06.794Z,57.92
